Time;durP1;ratioP1;P1;durP2;ratioP2;P2;SDS_P1;SDS_P2;PMS_P1;PMS_P2;Temp;Humidity;BMP_temperature;BMP_pressure;BME280_temperature;BME280_humidity;BME280_pressure;Samples;Min_cycle;Max_cycle;Signal;HPM_P1;HPM_P2
2023/04/30 00:00:28;;;;;;;6.00;3.30;;;;;;;10.16;71.42;96155.09;5075388;28;20505;-59
2023/04/30 00:02:55;;;;;;;6.22;2.95;;;;;;;10.09;69.00;96144.91;5075546;28;20052;-60
2023/04/30 00:05:24;;;;;;;3.75;2.88;;;;;;;10.12;69.06;96146.56;5075598;28;20119;-59
2023/04/30 00:07:51;;;;;;;4.82;3.38;;;;;;;10.14;70.65;96146.47;5075463;28;20041;-60
2023/04/30 00:10:18;;;;;;;5.80;2.78;;;;;;;10.12;70.93;96141.31;5075689;28;20074;-60
2023/04/30 00:12:45;;;;;;;11.43;4.30;;;;;;;9.96;70.90;96139.34;5075375;28;20482;-59
2023/04/30 00:15:12;;;;;;;4.60;3.47;;;;;;;9.95;70.85;96144.63;5075338;28;20147;-59
2023/04/30 00:17:39;;;;;;;3.97;3.28;;;;;;;9.87;71.49;96144.94;5075209;28;20045;-60
2023/04/30 00:20:08;;;;;;;6.07;3.70;;;;;;;9.74;70.01;96147.22;5075299;28;20040;-59
2023/04/30 00:22:37;;;;;;;8.82;3.28;;;;;;;9.74;70.37;96139.38;5075099;28;20048;-60
2023/04/30 00:25:05;;;;;;;5.15;3.30;;;;;;;9.77;71.19;96141.88;5075185;28;20048;-59
2023/04/30 00:27:32;;;;;;;5.10;3.53;;;;;;;9.77;71.85;96138.41;5075101;28;20059;-60
2023/04/30 00:29:59;;;;;;;4.72;3.63;;;;;;;9.73;71.32;96133.31;5074971;28;20040;-59
2023/04/30 00:32:27;;;;;;;8.82;3.22;;;;;;;9.75;72.07;96133.25;5075328;28;20079;-58
2023/04/30 00:34:53;;;;;;;7.22;2.97;;;;;;;9.72;72.73;96134.22;5075093;28;20052;-58
2023/04/30 00:37:21;;;;;;;6.35;3.25;;;;;;;9.77;73.23;96138.41;5074984;28;20127;-59
2023/04/30 00:39:49;;;;;;;5.47;3.40;;;;;;;9.80;73.60;96131.31;5074851;28;20555;-59
2023/04/30 00:42:16;;;;;;;4.30;3.80;;;;;;;9.70;70.52;96137.81;5074662;28;20047;-59
2023/04/30 00:44:43;;;;;;;5.20;3.35;;;;;;;9.66;68.94;96138.88;5074816;28;20102;-58
2023/04/30 00:47:10;;;;;;;3.67;2.78;;;;;;;9.63;70.64;96134.59;5074681;28;20045;-61
2023/04/30 00:49:37;;;;;;;9.77;3.42;;;;;;;9.66;72.36;96131.84;5074592;28;20140;-59
2023/04/30 00:52:05;;;;;;;3.85;3.13;;;;;;;9.71;73.04;96132.53;5074513;28;20493;-60
2023/04/30 00:54:32;;;;;;;7.57;2.95;;;;;;;9.72;73.60;96131.63;5074653;28;20486;-60
2023/04/30 00:57:01;;;;;;;7.63;3.60;;;;;;;9.75;73.51;96130.63;5074511;28;20045;-59
2023/04/30 00:59:29;;;;;;;5.13;3.60;;;;;;;9.81;73.14;96132.16;5074648;28;20048;-59
2023/04/30 01:01:56;;;;;;;6.43;3.40;;;;;;;9.83;73.17;96128.56;5074430;28;20044;-59
2023/04/30 01:04:24;;;;;;;4.05;3.33;;;;;;;9.81;73.72;96133.00;5074447;28;20106;-60
2023/04/30 01:06:52;;;;;;;5.85;3.67;;;;;;;9.79;73.53;96128.75;5074384;28;20044;-59
2023/04/30 01:09:19;;;;;;;10.77;3.65;;;;;;;9.77;73.58;96123.59;5074294;28;20072;-60
2023/04/30 01:12:05;;;;;;;3.67;3.13;;;;;;;9.77;73.13;96127.97;5073709;28;20452;-59
2023/04/30 01:14:51;;;;;;;11.38;3.85;;;;;;;9.69;73.01;96129.13;5074335;28;20060;-59
2023/04/30 01:17:26;;;;;;;7.63;3.45;;;;;;;9.64;73.06;96136.31;5074133;28;20044;-60
2023/04/30 01:19:54;;;;;;;4.50;3.33;;;;;;;9.58;72.43;96129.56;5073995;28;20049;-58
2023/04/30 01:22:36;;;;;;;8.65;3.25;;;;;;;9.54;72.97;96117.53;5073964;28;20048;-61
2023/04/30 01:25:32;;;;;;;5.70;3.28;;;;;;;9.52;74.36;96115.91;5074063;28;20048;-59
2023/04/30 01:28:14;;;;;;;4.85;2.90;;;;;;;9.47;74.99;96121.31;5074003;28;20048;-59
2023/04/30 01:30:43;;;;;;;4.93;3.72;;;;;;;9.40;75.69;96118.13;5074042;28;20048;-60
2023/04/30 01:33:11;;;;;;;4.03;3.45;;;;;;;9.41;75.19;96121.56;5073764;28;20053;-59
2023/04/30 01:35:58;;;;;;;5.80;3.22;;;;;;;9.43;74.47;96115.38;5073720;28;20559;-58
2023/04/30 01:38:41;;;;;;;4.55;3.25;;;;;;;9.39;75.04;96115.56;5073677;28;20052;-59
2023/04/30 01:41:15;;;;;;;4.05;3.13;;;;;;;9.34;75.52;96108.75;5073674;28;20049;-60
2023/04/30 01:43:50;;;;;;;4.75;3.30;;;;;;;9.32;74.79;96109.72;5073319;28;20074;-58
2023/04/30 01:46:26;;;;;;;5.97;3.35;;;;;;;9.33;74.68;96112.28;5073553;28;20066;-59
2023/04/30 01:49:01;;;;;;;7.50;3.70;;;;;;;9.32;73.29;96110.59;5073761;28;20052;-58
2023/04/30 01:51:34;;;;;;;4.45;3.33;;;;;;;9.36;74.37;96113.91;5073373;28;20051;-59
2023/04/30 01:54:09;;;;;;;5.18;3.40;;;;;;;9.32;75.34;96107.13;5073562;28;20056;-59
2023/04/30 01:56:41;;;;;;;4.97;3.30;;;;;;;9.19;74.56;96109.38;5073394;28;20487;-59
2023/04/30 01:59:11;;;;;;;5.32;3.10;;;;;;;9.16;74.83;96107.75;5073343;28;20393;-58
2023/04/30 02:01:38;;;;;;;4.28;3.42;;;;;;;9.17;75.76;96117.25;5073260;28;20131;-59
2023/04/30 02:04:05;;;;;;;7.45;3.47;;;;;;;9.08;75.22;96102.81;5073243;28;20094;-59
2023/04/30 02:06:33;;;;;;;6.20;2.95;;;;;;;9.10;74.69;96102.75;5073285;28;20049;-59
2023/04/30 02:09:04;;;;;;;4.60;3.35;;;;;;;9.08;75.62;96109.78;5073241;28;20535;-59
2023/04/30 02:11:31;;;;;;;4.28;3.40;;;;;;;9.09;75.29;96101.03;5073290;28;20044;-60
2023/04/30 02:13:58;;;;;;;5.72;3.35;;;;;;;9.12;74.74;96110.53;5073283;28;20114;-60
2023/04/30 02:16:27;;;;;;;4.55;3.38;;;;;;;9.18;74.79;96105.06;5073335;28;20127;-58
2023/04/30 02:18:54;;;;;;;5.60;3.35;;;;;;;9.20;75.40;96103.22;5073197;28;20402;-59
2023/04/30 02:21:21;;;;;;;7.47;3.78;;;;;;;9.25;76.49;96100.44;5073070;28;20051;-58
2023/04/30 02:23:48;;;;;;;6.72;3.40;;;;;;;9.22;76.14;96099.63;5073020;28;20044;-59
2023/04/30 02:26:15;;;;;;;4.32;3.38;;;;;;;9.14;75.78;96098.25;5073334;28;20044;-59
2023/04/30 02:28:42;;;;;;;3.97;3.17;;;;;;;9.17;76.20;96103.34;5073038;28;20049;-58
2023/04/30 02:31:10;;;;;;;5.72;3.13;;;;;;;9.17;76.80;96099.00;5073034;28;20084;-59
2023/04/30 02:33:38;;;;;;;7.35;3.28;;;;;;;9.15;76.53;96100.81;5073020;28;20406;-60
2023/04/30 02:36:06;;;;;;;4.88;3.38;;;;;;;9.13;76.30;96104.38;5072907;28;20129;-60
2023/04/30 02:38:33;;;;;;;10.15;3.17;;;;;;;9.14;76.44;96109.53;5072840;28;20596;-59
2023/04/30 02:41:01;;;;;;;5.53;3.40;;;;;;;9.11;76.23;96109.66;5072904;28;20048;-58
2023/04/30 02:43:28;;;;;;;7.20;3.22;;;;;;;9.12;76.36;96107.91;5072531;28;20143;-59
2023/04/30 02:45:55;;;;;;;5.80;3.17;;;;;;;9.11;76.34;96109.66;5072850;28;20044;-60
2023/04/30 02:48:22;;;;;;;6.15;3.63;;;;;;;9.13;75.75;96109.59;5072889;28;20131;-61
2023/04/30 02:50:51;;;;;;;4.57;3.30;;;;;;;9.16;77.15;96115.56;5072789;28;20045;-59
2023/04/30 02:53:18;;;;;;;7.70;3.20;;;;;;;9.13;76.68;96109.59;5072720;28;20097;-60
2023/04/30 02:55:45;;;;;;;3.42;2.97;;;;;;;9.13;75.98;96118.28;5072928;28;20044;-61
2023/04/30 02:58:12;;;;;;;4.30;3.10;;;;;;;9.15;75.94;96119.06;5073067;28;20113;-58
2023/04/30 03:00:40;;;;;;;4.93;3.08;;;;;;;9.08;76.50;96118.47;5072813;28;20056;-58
2023/04/30 03:03:07;;;;;;;9.85;3.70;;;;;;;9.06;76.08;96116.84;5072648;28;20494;-60
2023/04/30 03:05:34;;;;;;;4.20;2.97;;;;;;;9.02;74.57;96115.22;5072643;28;21162;-60
2023/04/30 03:08:03;;;;;;;5.68;3.35;;;;;;;8.89;73.16;96118.34;5072653;28;20047;-59
2023/04/30 03:10:30;;;;;;;5.18;3.50;;;;;;;8.86;73.66;96115.84;5072536;28;20048;-59
2023/04/30 03:12:57;;;;;;;3.88;3.28;;;;;;;8.93;74.58;96116.44;5072520;28;20058;-60
2023/04/30 03:15:24;;;;;;;3.97;3.17;;;;;;;8.97;75.59;96118.00;5072583;28;20053;-60
2023/04/30 03:17:51;;;;;;;5.43;3.38;;;;;;;9.00;76.14;96123.13;5072790;28;20170;-59
2023/04/30 03:20:18;;;;;;;4.40;3.47;;;;;;;8.96;76.38;96113.72;5072565;28;20076;-59
2023/04/30 03:22:46;;;;;;;3.97;3.50;;;;;;;8.95;76.71;96118.09;5072433;28;20091;-59
2023/04/30 03:25:15;;;;;;;4.80;2.90;;;;;;;8.94;75.74;96119.00;5072699;28;20078;-59
2023/04/30 03:27:42;;;;;;;6.82;3.42;;;;;;;8.91;76.32;96115.66;5072520;28;20049;-60
2023/04/30 03:30:10;;;;;;;4.82;3.30;;;;;;;8.95;76.65;96119.84;5072466;28;20056;-58
2023/04/30 03:32:38;;;;;;;4.95;3.22;;;;;;;8.95;76.98;96125.06;5072409;28;20102;-60
2023/04/30 03:35:07;;;;;;;6.00;3.22;;;;;;;8.96;76.73;96125.00;5072692;28;20044;-60
2023/04/30 03:37:34;;;;;;;6.13;3.42;;;;;;;9.00;76.85;96124.91;5075958;28;20498;-59
2023/04/30 03:40:01;;;;;;;4.65;3.25;;;;;;;9.06;77.18;96132.50;5075928;28;20490;-59
2023/04/30 03:42:29;;;;;;;6.78;3.40;;;;;;;9.10;76.22;96134.91;5075741;28;20060;-59
2023/04/30 03:44:58;;;;;;;4.57;3.28;;;;;;;9.12;74.33;96134.00;5075819;28;20122;-59
2023/04/30 03:47:26;;;;;;;4.85;2.95;;;;;;;9.16;74.70;96136.44;5075834;28;20056;-58
2023/04/30 03:49:54;;;;;;;6.57;3.72;;;;;;;9.17;75.07;96130.31;5075772;28;20045;-59
2023/04/30 03:52:21;;;;;;;5.40;3.72;;;;;;;9.18;76.34;96144.22;5075789;28;20075;-59
2023/04/30 03:54:50;;;;;;;5.80;3.33;;;;;;;9.15;77.08;96141.72;5075903;28;20048;-59
2023/04/30 03:57:17;;;;;;;7.20;3.80;;;;;;;9.20;77.34;96145.00;5075902;28;20045;-59
2023/04/30 03:59:46;;;;;;;3.90;3.25;;;;;;;9.26;77.03;96143.91;5075594;28;20049;-60
2023/04/30 04:02:14;;;;;;;3.65;2.95;;;;;;;9.27;77.31;96136.00;5075720;28;20080;-60
2023/04/30 04:04:45;;;;;;;5.32;3.03;;;;;;;9.31;77.05;96137.59;5075454;28;20052;-59
2023/04/30 04:07:13;;;;;;;5.88;3.42;;;;;;;9.37;76.96;96143.47;5075541;28;20056;-58
2023/04/30 04:09:42;;;;;;;5.93;3.30;;;;;;;9.43;76.55;96138.88;5075684;28;20053;-60
2023/04/30 04:12:10;;;;;;;7.18;3.17;;;;;;;9.49;76.31;96143.00;5075452;28;20413;-60
2023/04/30 04:14:40;;;;;;;7.03;3.30;;;;;;;9.55;76.31;96136.69;5075236;28;20055;-59
2023/04/30 04:17:10;;;;;;;4.90;3.75;;;;;;;9.57;77.46;96143.53;5075316;28;20041;-59
2023/04/30 04:19:38;;;;;;;4.70;3.47;;;;;;;9.59;77.18;96141.72;5075377;28;20125;-60
2023/04/30 04:22:06;;;;;;;5.45;3.03;;;;;;;9.60;75.12;96142.56;5075153;28;20052;-58
2023/04/30 04:24:35;;;;;;;3.88;3.05;;;;;;;9.61;75.16;96147.72;5075121;28;20091;-60
2023/04/30 04:27:05;;;;;;;6.00;3.63;;;;;;;9.69;75.22;96141.34;5075208;28;20087;-59
2023/04/30 04:29:36;;;;;;;5.47;3.40;;;;;;;9.71;76.03;96140.38;5075232;28;20045;-61
2023/04/30 04:32:04;;;;;;;5.65;3.63;;;;;;;9.77;77.17;96151.47;5074972;28;20055;-59
2023/04/30 04:34:34;;;;;;;4.00;3.00;;;;;;;9.78;77.20;96159.25;5075023;28;20121;-59
2023/04/30 04:37:02;;;;;;;5.75;3.35;;;;;;;9.84;76.99;96153.75;5074903;28;20080;-58
2023/04/30 04:39:30;;;;;;;4.85;3.60;;;;;;;9.90;77.15;96155.28;5074870;28;20054;-59
2023/04/30 04:42:07;;;;;;;7.10;3.55;;;;;;;9.97;77.18;96154.09;5074854;28;20044;-59
2023/04/30 04:44:35;;;;;;;7.25;3.65;;;;;;;10.03;77.59;96152.16;5074696;28;20558;-60
2023/04/30 04:47:04;;;;;;;5.78;3.30;;;;;;;10.10;77.93;96150.97;5073733;28;20482;-59
2023/04/30 04:49:31;;;;;;;4.32;3.38;;;;;;;10.15;77.47;96143.81;5074670;28;20504;-59
2023/04/30 04:52:03;;;;;;;6.60;3.38;;;;;;;10.22;76.79;96160.06;5074655;28;20044;-59
2023/04/30 04:54:31;;;;;;;5.47;3.50;;;;;;;10.30;76.33;96157.97;5074583;28;20072;-61
2023/04/30 04:56:59;;;;;;;8.25;4.00;;;;;;;10.41;74.47;96152.28;5074488;28;20052;-60
2023/04/30 04:59:27;;;;;;;6.60;4.20;;;;;;;10.51;73.70;96163.22;5074443;28;20040;-59
2023/04/30 05:01:55;;;;;;;7.75;4.20;;;;;;;10.61;73.50;96161.03;5074585;28;20053;-59
2023/04/30 05:04:22;;;;;;;8.23;3.88;;;;;;;10.71;72.78;96159.72;5074332;28;20490;-58
2023/04/30 05:06:49;;;;;;;9.95;3.83;;;;;;;10.76;71.07;96156.03;5074276;28;20047;-60
2023/04/30 05:09:18;;;;;;;6.10;3.45;;;;;;;10.87;72.56;96157.25;5074259;28;20098;-60
2023/04/30 05:11:47;;;;;;;5.00;3.55;;;;;;;10.96;72.85;96158.59;5074245;28;20044;-61
2023/04/30 05:14:15;;;;;;;5.22;3.35;;;;;;;11.12;71.50;96158.75;5074233;28;20045;-59
2023/04/30 05:16:42;;;;;;;6.47;3.38;;;;;;;11.28;68.77;96154.56;5074086;28;20084;-59
2023/04/30 05:19:10;;;;;;;5.90;2.97;;;;;;;11.43;66.98;96159.09;5074331;28;20048;-59
2023/04/30 05:21:38;;;;;;;6.43;3.65;;;;;;;11.60;65.99;96160.03;5074039;28;20053;-58
2023/04/30 05:24:06;;;;;;;7.90;3.28;;;;;;;12.03;61.77;96164.94;5073796;28;20537;-60
2023/04/30 05:26:35;;;;;;;6.05;3.03;;;;;;;12.82;60.13;96170.59;5074059;28;20048;-59
2023/04/30 05:29:02;;;;;;;3.67;3.03;;;;;;;13.75;55.04;96167.34;5073850;28;20048;-59
2023/04/30 05:31:31;;;;;;;4.95;3.00;;;;;;;14.44;52.58;96175.72;5074065;28;20045;-60
2023/04/30 05:33:58;;;;;;;3.88;2.42;;;;;;;15.28;51.48;96168.91;5073931;28;20044;-60
2023/04/30 05:36:25;;;;;;;6.10;2.88;;;;;;;15.68;51.17;96169.94;5073804;28;20136;-59
2023/04/30 05:38:53;;;;;;;6.00;2.65;;;;;;;15.81;50.62;96175.28;5073757;28;20040;-59
2023/04/30 05:41:21;;;;;;;7.88;3.38;;;;;;;15.99;50.85;96175.91;5073641;28;20080;-59
2023/04/30 05:43:50;;;;;;;5.15;3.15;;;;;;;16.45;50.19;96170.25;5073515;28;20036;-59
2023/04/30 05:46:17;;;;;;;4.93;3.00;;;;;;;17.01;48.26;96180.50;5073652;28;20573;-60
2023/04/30 05:48:45;;;;;;;4.43;2.72;;;;;;;17.43;47.40;96182.91;5073462;28;20090;-60
2023/04/30 05:51:12;;;;;;;5.38;3.00;;;;;;;17.69;46.29;96181.97;5073516;28;20456;-59
2023/04/30 05:53:40;;;;;;;4.85;3.05;;;;;;;18.07;45.02;96172.19;5073547;28;20080;-59
2023/04/30 05:56:07;;;;;;;6.85;3.08;;;;;;;18.22;44.14;96179.97;5073458;28;20105;-59
2023/04/30 05:58:35;;;;;;;6.45;2.97;;;;;;;18.48;43.88;96174.50;5073148;28;20044;-59
2023/04/30 06:01:04;;;;;;;8.15;2.58;;;;;;;18.67;42.50;96179.25;5073431;28;20053;-59
2023/04/30 06:03:32;;;;;;;5.32;2.40;;;;;;;18.80;43.16;96181.78;5073281;28;20127;-60
2023/04/30 06:05:59;;;;;;;4.90;2.78;;;;;;;18.87;43.05;96179.50;5073435;28;20044;-60
2023/04/30 06:08:26;;;;;;;6.70;2.95;;;;;;;19.01;42.57;96178.44;5073224;28;20044;-59
2023/04/30 06:10:53;;;;;;;3.60;2.85;;;;;;;19.18;42.47;96187.75;5073277;28;20064;-59
2023/04/30 06:13:21;;;;;;;4.60;3.05;;;;;;;19.49;42.07;96181.81;5073176;28;20048;-59
2023/04/30 06:15:49;;;;;;;4.57;2.78;;;;;;;19.78;40.81;96181.28;5073198;28;20045;-60
2023/04/30 06:18:17;;;;;;;4.60;2.90;;;;;;;20.23;39.70;96187.41;5073112;28;20490;-59
2023/04/30 06:20:45;;;;;;;5.80;2.95;;;;;;;20.36;38.72;96179.25;5073131;28;20053;-59
2023/04/30 06:23:12;;;;;;;5.75;2.92;;;;;;;20.53;39.14;96181.34;5073122;28;20052;-60
2023/04/30 06:25:40;;;;;;;6.43;2.92;;;;;;;20.67;38.54;96179.31;5072959;28;20082;-59
2023/04/30 06:28:08;;;;;;;5.35;2.80;;;;;;;20.61;37.50;96180.69;5073084;28;20110;-60
2023/04/30 06:30:37;;;;;;;4.55;2.50;;;;;;;20.66;37.62;96185.63;5073007;28;20048;-60
2023/04/30 06:33:04;;;;;;;4.95;2.92;;;;;;;20.70;37.96;96173.75;5073072;28;20044;-60
2023/04/30 06:35:33;;;;;;;6.10;2.42;;;;;;;21.04;37.43;96183.34;5073079;28;20048;-59
2023/04/30 06:38:00;;;;;;;7.13;2.53;;;;;;;21.19;37.51;96184.66;5072923;28;20102;-60
2023/04/30 06:40:27;;;;;;;3.58;2.05;;;;;;;21.40;35.59;96173.13;5072992;28;20098;-60
2023/04/30 06:42:54;;;;;;;3.55;2.22;;;;;;;21.23;36.21;96179.94;5072755;28;20052;-60
2023/04/30 06:45:22;;;;;;;4.47;2.75;;;;;;;21.12;35.95;96172.88;5072764;28;20086;-60
2023/04/30 06:47:49;;;;;;;5.68;2.05;;;;;;;21.25;36.00;96174.47;5072871;28;20045;-59
2023/04/30 06:50:16;;;;;;;4.22;2.40;;;;;;;21.23;37.57;96173.75;5072845;28;20045;-59
2023/04/30 06:52:45;;;;;;;6.60;2.28;;;;;;;21.37;37.52;96167.25;5072794;28;20041;-59
2023/04/30 06:55:12;;;;;;;6.57;2.85;;;;;;;21.06;36.52;96171.59;5072751;28;20063;-59
2023/04/30 06:57:39;;;;;;;5.15;2.70;;;;;;;20.74;38.03;96167.19;5072776;28;20545;-60
2023/04/30 07:00:08;;;;;;;5.78;2.83;;;;;;;21.24;36.10;96176.28;5073090;28;20562;-59
2023/04/30 07:02:36;;;;;;;5.03;2.78;;;;;;;21.15;35.81;96171.75;5072862;28;20123;-58
2023/04/30 07:05:06;;;;;;;6.80;2.70;;;;;;;21.48;37.08;96169.78;5072589;28;20051;-59
2023/04/30 07:07:34;;;;;;;4.00;2.08;;;;;;;21.71;35.83;96166.91;5072850;28;20122;-59
2023/04/30 07:10:07;;;;;;;3.13;2.20;;;;;;;21.75;36.65;96170.09;5072932;28;20048;-59
2023/04/30 07:12:34;;;;;;;4.80;2.45;;;;;;;21.96;36.19;96170.88;5076653;28;20132;-59
2023/04/30 07:15:02;;;;;;;5.20;2.03;;;;;;;22.14;34.74;96167.53;5076509;28;20092;-60
2023/04/30 07:17:32;;;;;;;4.10;2.53;;;;;;;22.17;34.95;96169.06;5076676;28;20052;-59
2023/04/30 07:20:04;;;;;;;2.95;2.35;;;;;;;22.01;35.39;96167.81;5076365;28;20051;-60
2023/04/30 07:22:34;;;;;;;4.57;2.45;;;;;;;21.91;34.18;96162.47;5076349;28;20060;-59
2023/04/30 07:25:12;;;;;;;6.68;2.58;;;;;;;21.69;34.52;96164.38;5076148;28;20041;-60
2023/04/30 07:27:46;;;;;;;4.20;2.45;;;;;;;21.57;36.58;96163.66;5075831;28;20048;-59
2023/04/30 07:30:24;;;;;;;4.63;2.30;;;;;;;21.45;36.12;96167.38;5076043;28;20045;-59
2023/04/30 07:32:53;;;;;;;2.97;2.08;;;;;;;21.63;35.79;96167.56;5075891;28;20054;-59
2023/04/30 07:35:24;;;;;;;3.38;2.13;;;;;;;21.69;35.89;96164.38;5076196;28;20433;-59
2023/04/30 07:37:57;;;;;;;2.88;2.42;;;;;;;21.28;36.09;96176.88;5076068;28;20557;-59
2023/04/30 07:40:25;;;;;;;4.03;2.50;;;;;;;20.84;36.88;96169.94;5076033;28;20482;-59
2023/04/30 07:42:54;;;;;;;6.07;2.72;;;;;;;20.82;36.85;96171.84;5075686;28;20044;-59
2023/04/30 07:45:21;;;;;;;6.97;2.17;;;;;;;20.93;36.66;96171.84;5075814;28;20052;-59
2023/04/30 07:47:48;;;;;;;3.45;2.38;;;;;;;21.47;37.07;96176.09;5075746;28;20486;-59
2023/04/30 07:50:17;;;;;;;6.93;2.33;;;;;;;21.90;38.12;96166.13;5076053;28;20044;-60
2023/04/30 07:52:44;;;;;;;3.05;1.83;;;;;;;22.03;35.26;96173.81;5075849;28;20117;-59
2023/04/30 07:55:11;;;;;;;5.97;2.60;;;;;;;22.19;36.49;96167.94;5075882;28;20052;-59
2023/04/30 07:57:39;;;;;;;4.35;2.40;;;;;;;21.75;35.02;96181.63;5075652;28;20041;-58
2023/04/30 08:00:09;;;;;;;3.50;2.50;;;;;;;21.14;35.65;96183.38;5075743;28;20047;-58
2023/04/30 08:02:37;;;;;;;4.20;2.43;;;;;;;20.86;36.62;96175.09;5075644;28;20409;-58
2023/04/30 08:05:05;;;;;;;4.63;2.15;;;;;;;20.70;38.29;96185.22;5075704;28;20670;-59
2023/04/30 08:07:32;;;;;;;4.82;2.60;;;;;;;20.49;36.82;96176.41;5075826;28;20048;-59
2023/04/30 08:09:59;;;;;;;3.88;2.53;;;;;;;20.24;37.83;96175.81;5075525;28;20089;-60
2023/04/30 08:12:26;;;;;;;3.88;2.47;;;;;;;20.33;38.83;96175.91;5075379;28;20522;-59
2023/04/30 08:15:00;;;;;;;8.63;2.58;;;;;;;19.99;38.40;96178.69;5075425;28;20127;-59
2023/04/30 08:17:29;;;;;;;3.72;2.58;;;;;;;19.78;40.83;96176.78;5075378;28;20080;-58
2023/04/30 08:19:56;;;;;;;7.22;2.85;;;;;;;19.50;39.06;96183.50;5075333;28;20052;-58
2023/04/30 08:22:24;;;;;;;5.38;2.45;;;;;;;19.37;40.13;96181.81;5075348;28;20055;-59
2023/04/30 08:24:51;;;;;;;4.55;2.60;;;;;;;19.59;39.65;96176.63;5075161;28;20106;-58
2023/04/30 08:27:18;;;;;;;4.25;2.75;;;;;;;19.64;40.34;96177.06;5075265;28;20123;-58
2023/04/30 08:29:45;;;;;;;7.03;3.03;;;;;;;19.84;39.88;96167.50;5075394;28;20048;-60
2023/04/30 08:32:13;;;;;;;3.90;2.40;;;;;;;20.26;39.31;96176.53;5075030;28;20048;-60
2023/04/30 08:34:42;;;;;;;3.97;2.50;;;;;;;20.33;37.87;96173.25;5075104;28;20052;-60
2023/04/30 08:37:09;;;;;;;3.95;2.53;;;;;;;20.53;37.85;96164.56;5075072;28;20072;-58
2023/04/30 08:39:36;;;;;;;6.38;3.00;;;;;;;20.20;37.91;96161.97;5075037;28;20109;-58
2023/04/30 08:42:11;;;;;;;3.75;2.85;;;;;;;20.05;38.73;96161.44;5074978;28;20048;-58
2023/04/30 08:44:42;;;;;;;4.32;2.60;;;;;;;20.14;39.59;96157.16;5074842;28;20052;-58
2023/04/30 08:47:15;;;;;;;3.58;2.55;;;;;;;20.42;41.00;96157.50;5074879;28;20040;-59
2023/04/30 08:49:45;;;;;;;5.82;2.67;;;;;;;20.74;40.99;96155.75;5074796;28;20051;-58
2023/04/30 08:52:13;;;;;;;7.18;2.75;;;;;;;20.97;39.16;96156.44;5074730;28;20106;-58
2023/04/30 08:54:40;;;;;;;3.60;2.55;;;;;;;21.19;41.17;96152.75;5074840;28;20053;-58
2023/04/30 08:57:09;;;;;;;5.25;2.92;;;;;;;21.16;37.84;96163.66;5074588;28;20478;-59
2023/04/30 08:59:37;;;;;;;7.07;2.33;;;;;;;20.67;39.72;96153.59;5074773;28;20109;-58
2023/04/30 09:02:06;;;;;;;5.13;2.72;;;;;;;20.58;38.94;96159.69;5074597;28;20048;-59
2023/04/30 09:04:34;;;;;;;5.68;2.65;;;;;;;20.58;40.26;96155.25;5074374;28;20044;-58
2023/04/30 09:07:03;;;;;;;5.28;2.78;;;;;;;20.53;38.89;96154.78;5074535;28;20072;-59
2023/04/30 09:09:38;;;;;;;4.67;2.23;;;;;;;20.36;39.47;96148.25;5074395;28;20131;-59
2023/04/30 09:12:14;;;;;;;5.78;2.55;;;;;;;19.98;39.03;96153.09;5074290;28;20491;-58
2023/04/30 09:14:41;;;;;;;8.30;3.17;;;;;;;19.71;39.12;96143.78;5074201;28;20543;-58
2023/04/30 09:17:09;;;;;;;3.03;2.20;;;;;;;19.44;40.14;96150.34;5074072;28;20044;-60
2023/04/30 09:19:38;;;;;;;6.30;3.00;;;;;;;19.09;39.81;96151.34;5074153;28;20056;-58
2023/04/30 09:22:21;;;;;;;5.18;2.25;;;;;;;19.01;41.91;96141.31;5074116;28;20059;-59
2023/04/30 09:24:50;;;;;;;6.07;2.67;;;;;;;19.10;42.09;96137.13;5073985;28;20084;-59
2023/04/30 09:27:19;;;;;;;4.63;2.33;;;;;;;19.26;41.86;96134.13;5074014;28;20098;-59
2023/04/30 09:29:47;;;;;;;9.35;2.88;;;;;;;19.20;40.25;96132.78;5073995;28;20121;-58
2023/04/30 09:32:17;;;;;;;5.70;2.53;;;;;;;18.83;42.26;96131.22;5073986;28;20049;-58
2023/04/30 09:34:44;;;;;;;4.75;2.60;;;;;;;18.82;42.53;96133.00;5073311;28;20053;-59
2023/04/30 09:37:11;;;;;;;6.05;2.90;;;;;;;18.76;42.09;96130.00;5073720;28;20413;-59
2023/04/30 09:39:51;;;;;;;4.43;2.58;;;;;;;18.36;40.84;96129.47;5073740;28;20056;-59
2023/04/30 09:42:19;;;;;;;3.92;2.33;;;;;;;18.27;41.71;96124.88;5073477;28;20380;-58
2023/04/30 09:44:47;;;;;;;5.40;2.42;;;;;;;18.15;40.17;96111.59;5073586;28;21269;-58
2023/04/30 09:47:16;;;;;;;4.15;2.60;;;;;;;18.39;43.20;96108.03;5073584;28;20044;-58
2023/04/30 09:49:50;;;;;;;6.25;2.72;;;;;;;18.58;44.94;96116.38;5073632;28;20113;-59
2023/04/30 09:52:18;;;;;;;6.10;2.65;;;;;;;18.52;42.66;96113.25;5073534;28;20056;-59
2023/04/30 09:54:47;;;;;;;4.82;2.40;;;;;;;18.45;42.76;96114.66;5073627;28;20080;-59
2023/04/30 09:57:16;;;;;;;3.95;2.92;;;;;;;18.30;42.63;96119.34;5073499;28;20131;-59
2023/04/30 09:59:45;;;;;;;6.63;2.42;;;;;;;18.27;43.22;96112.47;5073388;28;20052;-58
2023/04/30 10:02:15;;;;;;;3.65;2.47;;;;;;;18.31;43.11;96121.03;5073325;28;20114;-58
2023/04/30 10:04:54;;;;;;;6.15;3.03;;;;;;;18.27;43.18;96124.88;5073229;28;20075;-59
2023/04/30 10:07:22;;;;;;;12.07;2.53;;;;;;;18.23;45.25;96131.34;5073263;28;20074;-59
2023/04/30 10:09:52;;;;;;;3.03;2.47;;;;;;;18.30;44.82;96125.47;5073350;28;20052;-58
2023/04/30 10:12:26;;;;;;;3.88;2.38;;;;;;;18.37;45.45;96130.31;5073229;28;20571;-58
2023/04/30 10:15:00;;;;;;;5.47;2.50;;;;;;;18.41;44.74;96127.31;5073238;28;20426;-59
2023/04/30 10:17:30;;;;;;;4.15;2.50;;;;;;;18.49;42.42;96126.72;5072860;28;20553;-58
2023/04/30 10:20:04;;;;;;;4.40;2.47;;;;;;;18.33;42.56;96123.56;5073165;28;20044;-58
2023/04/30 10:22:33;;;;;;;3.70;2.67;;;;;;;18.25;42.25;96122.34;5073335;28;20132;-59
2023/04/30 10:25:02;;;;;;;4.55;2.50;;;;;;;18.15;42.33;96116.91;5073375;28;20045;-59
2023/04/30 10:27:32;;;;;;;3.97;2.53;;;;;;;18.12;42.12;96121.59;5073078;28;20084;-57
2023/04/30 10:30:03;;;;;;;4.18;2.70;;;;;;;17.92;42.28;96121.25;5072923;28;20489;-54
2023/04/30 10:32:38;;;;;;;7.90;3.03;;;;;;;17.86;43.56;96121.69;5073056;28;20371;-55
2023/04/30 10:35:12;;;;;;;5.40;2.80;;;;;;;17.88;42.76;96117.97;5071713;28;20059;-57
2023/04/30 10:37:46;;;;;;;5.45;2.88;;;;;;;17.93;43.11;96123.78;5072665;28;20053;-56
2023/04/30 10:40:14;;;;;;;3.78;2.67;;;;;;;17.92;43.29;96122.09;5072482;28;20048;-55
2023/04/30 10:42:48;;;;;;;4.07;2.53;;;;;;;18.04;43.20;96119.50;5072648;28;20094;-56
2023/04/30 10:45:17;;;;;;;3.50;2.50;;;;;;;18.02;43.34;96122.25;5073265;28;20494;-56
2023/04/30 10:47:45;;;;;;;6.95;3.00;;;;;;;17.90;43.10;96120.50;5076963;28;20048;-56
2023/04/30 10:50:13;;;;;;;5.88;2.88;;;;;;;17.71;44.45;96119.25;5076988;28;20052;-54
2023/04/30 10:52:41;;;;;;;4.80;2.97;;;;;;;17.74;44.24;96118.16;5076953;28;20506;-56
2023/04/30 10:55:10;;;;;;;4.55;2.35;;;;;;;17.75;44.49;96117.19;5076535;28;20098;-56
2023/04/30 10:57:45;;;;;;;4.63;2.45;;;;;;;17.75;44.65;96126.00;5076590;28;20040;-55
2023/04/30 11:00:27;;;;;;;5.22;2.63;;;;;;;17.63;45.86;96127.72;5075843;28;20053;-58
2023/04/30 11:03:02;;;;;;;4.55;2.63;;;;;;;17.52;45.16;96132.97;5076735;28;20067;-57
2023/04/30 11:05:38;;;;;;;4.47;2.50;;;;;;;17.40;46.00;96138.19;5076377;28;20112;-54
2023/04/30 11:08:11;;;;;;;8.35;2.80;;;;;;;17.28;45.34;96133.78;5076638;28;20131;-54
2023/04/30 11:10:58;;;;;;;4.57;2.35;;;;;;;17.14;46.31;96132.13;5076533;28;20136;-55
2023/04/30 11:13:29;;;;;;;7.47;2.50;;;;;;;17.01;47.38;96138.25;5076500;28;20101;-56
2023/04/30 11:16:03;;;;;;;4.13;2.45;;;;;;;16.96;47.38;96132.44;5076519;28;20110;-52
2023/04/30 11:18:31;;;;;;;5.38;2.67;;;;;;;16.95;47.45;96140.47;5076439;28;20058;-54
2023/04/30 11:21:02;;;;;;;4.72;2.60;;;;;;;16.91;48.20;96134.56;5076437;28;20048;-52
2023/04/30 11:23:29;;;;;;;3.33;2.60;;;;;;;16.96;47.44;96128.94;5076322;28;20076;-54
2023/04/30 11:25:59;;;;;;;5.18;2.85;;;;;;;16.97;49.39;96120.91;5076268;28;20053;-55
2023/04/30 11:28:28;;;;;;;4.05;2.72;;;;;;;17.33;48.02;96115.78;5076189;28;20055;-57
2023/04/30 11:30:59;;;;;;;4.43;2.50;;;;;;;17.83;46.58;96106.91;5076276;28;20482;-54
2023/04/30 11:33:27;;;;;;;;;;;;;;;18.14;44.40;96102.00;5076585;28;20052;-53
2023/04/30 11:35:56;;;;;;;5.13;2.38;;;;;;;18.09;44.00;96108.56;5076007;28;19920;-52
2023/04/30 11:38:30;;;;;;;6.25;2.78;;;;;;;18.41;45.42;96095.53;5076115;28;20387;-55
2023/04/30 11:40:59;;;;;;;4.93;2.55;;;;;;;18.64;42.89;96111.47;5076001;28;20131;-55
2023/04/30 11:43:28;;;;;;;5.47;2.55;;;;;;;18.76;42.22;96104.38;5075684;28;20589;-54
2023/04/30 11:46:09;;;;;;;5.63;2.58;;;;;;;18.77;42.71;96108.69;5075739;28;20075;-56